sensor_id;sensor_type;location;lat;lon;timestamp;P1;durP1;ratioP1;P2;durP2;ratioP2
24439;SDS011;12618;54.386;18.394;2022-08-19T00:00:11;18.75;;;16.30;;
24439;SDS011;12618;54.386;18.394;2022-08-19T00:02:44;19.00;;;17.00;;
24439;SDS011;12618;54.386;18.394;2022-08-19T00:05:16;19.52;;;17.00;;
24439;SDS011;12618;54.386;18.394;2022-08-19T00:07:47;18.23;;;16.37;;
24439;SDS011;12618;54.386;18.394;2022-08-19T00:10:19;18.55;;;16.75;;
24439;SDS011;12618;54.386;18.394;2022-08-19T00:12:49;18.62;;;16.73;;
24439;SDS011;12618;54.386;18.394;2022-08-19T00:15:20;18.57;;;16.48;;
24439;SDS011;12618;54.386;18.394;2022-08-19T00:17:51;18.95;;;16.85;;
24439;SDS011;12618;54.386;18.394;2022-08-19T00:20:22;18.30;;;16.50;;
24439;SDS011;12618;54.386;18.394;2022-08-19T00:22:54;18.67;;;16.77;;
24439;SDS011;12618;54.386;18.394;2022-08-19T00:25:25;19.90;;;17.77;;
24439;SDS011;12618;54.386;18.394;2022-08-19T00:27:56;20.85;;;18.10;;
24439;SDS011;12618;54.386;18.394;2022-08-19T00:30:26;19.67;;;17.65;;
24439;SDS011;12618;54.386;18.394;2022-08-19T00:32:58;20.62;;;18.57;;
24439;SDS011;12618;54.386;18.394;2022-08-19T00:35:28;20.05;;;17.77;;
24439;SDS011;12618;54.386;18.394;2022-08-19T00:37:59;22.42;;;19.25;;
24439;SDS011;12618;54.386;18.394;2022-08-19T00:40:29;20.48;;;18.37;;
24439;SDS011;12618;54.386;18.394;2022-08-19T00:43:00;20.80;;;18.55;;
24439;SDS011;12618;54.386;18.394;2022-08-19T00:45:31;20.08;;;18.02;;
24439;SDS011;12618;54.386;18.394;2022-08-19T00:48:03;19.73;;;17.73;;
24439;SDS011;12618;54.386;18.394;2022-08-19T00:50:36;22.15;;;18.02;;
24439;SDS011;12618;54.386;18.394;2022-08-19T00:53:13;19.95;;;17.77;;
24439;SDS011;12618;54.386;18.394;2022-08-19T00:55:45;20.02;;;17.95;;
24439;SDS011;12618;54.386;18.394;2022-08-19T00:58:17;19.67;;;17.67;;
24439;SDS011;12618;54.386;18.394;2022-08-19T01:00:51;19.70;;;16.97;;
24439;SDS011;12618;54.386;18.394;2022-08-19T01:03:22;19.60;;;17.10;;
24439;SDS011;12618;54.386;18.394;2022-08-19T01:05:56;18.73;;;16.73;;
24439;SDS011;12618;54.386;18.394;2022-08-19T01:08:25;19.05;;;17.17;;
24439;SDS011;12618;54.386;18.394;2022-08-19T01:10:56;20.72;;;18.62;;
24439;SDS011;12618;54.386;18.394;2022-08-19T01:13:29;19.42;;;17.30;;
24439;SDS011;12618;54.386;18.394;2022-08-19T01:16:01;18.82;;;16.97;;
24439;SDS011;12618;54.386;18.394;2022-08-19T01:18:33;19.12;;;16.42;;
24439;SDS011;12618;54.386;18.394;2022-08-19T01:21:07;19.10;;;16.82;;
24439;SDS011;12618;54.386;18.394;2022-08-19T01:23:37;19.40;;;17.35;;
24439;SDS011;12618;54.386;18.394;2022-08-19T01:26:16;19.32;;;17.42;;
24439;SDS011;12618;54.386;18.394;2022-08-19T01:28:48;21.70;;;19.15;;
24439;SDS011;12618;54.386;18.394;2022-08-19T01:31:20;20.25;;;18.10;;
24439;SDS011;12618;54.386;18.394;2022-08-19T01:33:57;20.70;;;18.52;;
24439;SDS011;12618;54.386;18.394;2022-08-19T01:36:33;19.62;;;17.48;;
24439;SDS011;12618;54.386;18.394;2022-08-19T01:39:05;18.30;;;16.42;;
24439;SDS011;12618;54.386;18.394;2022-08-19T01:41:35;19.75;;;17.80;;
24439;SDS011;12618;54.386;18.394;2022-08-19T01:44:07;20.75;;;18.55;;
24439;SDS011;12618;54.386;18.394;2022-08-19T01:46:38;20.12;;;18.12;;
24439;SDS011;12618;54.386;18.394;2022-08-19T01:49:09;20.43;;;18.42;;
24439;SDS011;12618;54.386;18.394;2022-08-19T01:51:40;20.08;;;17.98;;
24439;SDS011;12618;54.386;18.394;2022-08-19T01:54:12;19.98;;;17.95;;
24439;SDS011;12618;54.386;18.394;2022-08-19T01:56:43;20.85;;;18.65;;
24439;SDS011;12618;54.386;18.394;2022-08-19T01:59:16;21.60;;;18.73;;
24439;SDS011;12618;54.386;18.394;2022-08-19T02:01:46;19.90;;;17.90;;
24439;SDS011;12618;54.386;18.394;2022-08-19T02:04:16;20.70;;;18.52;;
24439;SDS011;12618;54.386;18.394;2022-08-19T02:06:47;21.00;;;18.75;;
24439;SDS011;12618;54.386;18.394;2022-08-19T02:09:18;21.82;;;19.62;;
24439;SDS011;12618;54.386;18.394;2022-08-19T02:11:48;23.77;;;20.23;;
24439;SDS011;12618;54.386;18.394;2022-08-19T02:14:19;21.95;;;19.70;;
24439;SDS011;12618;54.386;18.394;2022-08-19T02:16:49;24.07;;;20.83;;
24439;SDS011;12618;54.386;18.394;2022-08-19T02:19:20;23.30;;;20.92;;
24439;SDS011;12618;54.386;18.394;2022-08-19T02:21:51;23.45;;;20.92;;
24439;SDS011;12618;54.386;18.394;2022-08-19T02:24:21;23.22;;;20.75;;
24439;SDS011;12618;54.386;18.394;2022-08-19T02:26:52;22.10;;;19.80;;
24439;SDS011;12618;54.386;18.394;2022-08-19T02:29:23;24.25;;;20.85;;
24439;SDS011;12618;54.386;18.394;2022-08-19T02:31:54;22.22;;;19.85;;
24439;SDS011;12618;54.386;18.394;2022-08-19T02:34:24;22.55;;;19.85;;
24439;SDS011;12618;54.386;18.394;2022-08-19T02:36:55;21.80;;;19.53;;
24439;SDS011;12618;54.386;18.394;2022-08-19T02:39:25;23.83;;;20.63;;
24439;SDS011;12618;54.386;18.394;2022-08-19T02:41:56;22.77;;;20.37;;
24439;SDS011;12618;54.386;18.394;2022-08-19T02:44:28;23.45;;;20.72;;
24439;SDS011;12618;54.386;18.394;2022-08-19T02:46:59;24.20;;;21.60;;
24439;SDS011;12618;54.386;18.394;2022-08-19T02:49:31;25.02;;;21.68;;
24439;SDS011;12618;54.386;18.394;2022-08-19T02:52:02;25.12;;;20.85;;
24439;SDS011;12618;54.386;18.394;2022-08-19T02:54:32;22.67;;;20.27;;
24439;SDS011;12618;54.386;18.394;2022-08-19T02:57:03;22.95;;;20.50;;
24439;SDS011;12618;54.386;18.394;2022-08-19T02:59:34;20.90;;;18.82;;
24439;SDS011;12618;54.386;18.394;2022-08-19T03:02:04;23.60;;;20.75;;
24439;SDS011;12618;54.386;18.394;2022-08-19T03:04:35;24.32;;;20.62;;
24439;SDS011;12618;54.386;18.394;2022-08-19T03:07:05;21.87;;;19.67;;
24439;SDS011;12618;54.386;18.394;2022-08-19T03:09:36;21.17;;;19.07;;
24439;SDS011;12618;54.386;18.394;2022-08-19T03:12:07;21.73;;;19.17;;
24439;SDS011;12618;54.386;18.394;2022-08-19T03:14:38;23.40;;;21.00;;
24439;SDS011;12618;54.386;18.394;2022-08-19T03:17:08;25.48;;;20.37;;
24439;SDS011;12618;54.386;18.394;2022-08-19T03:19:39;21.02;;;18.90;;
24439;SDS011;12618;54.386;18.394;2022-08-19T03:22:10;23.18;;;19.73;;
24439;SDS011;12618;54.386;18.394;2022-08-19T03:24:40;24.43;;;20.08;;
24439;SDS011;12618;54.386;18.394;2022-08-19T03:27:11;21.48;;;18.80;;
24439;SDS011;12618;54.386;18.394;2022-08-19T03:29:42;21.20;;;18.92;;
24439;SDS011;12618;54.386;18.394;2022-08-19T03:32:13;22.60;;;18.55;;
24439;SDS011;12618;54.386;18.394;2022-08-19T03:34:44;20.75;;;18.57;;
24439;SDS011;12618;54.386;18.394;2022-08-19T03:37:14;21.82;;;18.17;;
24439;SDS011;12618;54.386;18.394;2022-08-19T03:39:44;22.87;;;18.55;;
24439;SDS011;12618;54.386;18.394;2022-08-19T03:42:15;23.47;;;19.52;;
24439;SDS011;12618;54.386;18.394;2022-08-19T03:44:47;21.97;;;19.25;;
24439;SDS011;12618;54.386;18.394;2022-08-19T03:47:17;22.13;;;19.82;;
24439;SDS011;12618;54.386;18.394;2022-08-19T03:49:48;22.05;;;18.32;;
24439;SDS011;12618;54.386;18.394;2022-08-19T03:52:19;21.30;;;19.20;;
24439;SDS011;12618;54.386;18.394;2022-08-19T03:54:49;21.05;;;18.95;;
24439;SDS011;12618;54.386;18.394;2022-08-19T03:57:20;23.90;;;18.75;;
24439;SDS011;12618;54.386;18.394;2022-08-19T03:59:50;20.37;;;18.25;;
24439;SDS011;12618;54.386;18.394;2022-08-19T04:02:21;21.00;;;18.02;;
24439;SDS011;12618;54.386;18.394;2022-08-19T04:04:53;21.25;;;18.98;;
24439;SDS011;12618;54.386;18.394;2022-08-19T04:07:24;27.58;;;19.25;;
24439;SDS011;12618;54.386;18.394;2022-08-19T04:09:55;24.65;;;18.60;;
24439;SDS011;12618;54.386;18.394;2022-08-19T04:12:25;22.67;;;18.87;;
24439;SDS011;12618;54.386;18.394;2022-08-19T04:14:56;22.27;;;18.87;;
24439;SDS011;12618;54.386;18.394;2022-08-19T04:17:26;23.30;;;19.65;;
24439;SDS011;12618;54.386;18.394;2022-08-19T04:19:57;20.23;;;18.10;;
24439;SDS011;12618;54.386;18.394;2022-08-19T04:22:27;21.10;;;18.67;;
24439;SDS011;12618;54.386;18.394;2022-08-19T04:24:58;23.50;;;18.92;;
24439;SDS011;12618;54.386;18.394;2022-08-19T04:27:28;20.68;;;18.65;;
24439;SDS011;12618;54.386;18.394;2022-08-19T04:29:59;22.32;;;20.05;;
24439;SDS011;12618;54.386;18.394;2022-08-19T04:32:29;24.70;;;20.37;;
24439;SDS011;12618;54.386;18.394;2022-08-19T04:35:02;24.25;;;19.57;;
24439;SDS011;12618;54.386;18.394;2022-08-19T04:37:32;24.07;;;19.32;;
24439;SDS011;12618;54.386;18.394;2022-08-19T04:40:04;24.45;;;19.80;;
24439;SDS011;12618;54.386;18.394;2022-08-19T04:42:53;23.38;;;20.00;;
24439;SDS011;12618;54.386;18.394;2022-08-19T04:45:23;25.48;;;19.60;;
24439;SDS011;12618;54.386;18.394;2022-08-19T04:47:54;22.87;;;18.93;;
24439;SDS011;12618;54.386;18.394;2022-08-19T04:50:27;24.00;;;20.05;;
24439;SDS011;12618;54.386;18.394;2022-08-19T04:52:58;21.33;;;19.12;;
24439;SDS011;12618;54.386;18.394;2022-08-19T04:55:29;21.50;;;18.40;;
24439;SDS011;12618;54.386;18.394;2022-08-19T04:57:59;19.05;;;17.07;;
24439;SDS011;12618;54.386;18.394;2022-08-19T05:00:30;19.90;;;18.00;;
24439;SDS011;12618;54.386;18.394;2022-08-19T05:03:00;21.15;;;18.25;;
24439;SDS011;12618;54.386;18.394;2022-08-19T05:05:32;19.85;;;17.10;;
24439;SDS011;12618;54.386;18.394;2022-08-19T05:08:05;19.40;;;17.32;;
24439;SDS011;12618;54.386;18.394;2022-08-19T05:10:37;18.95;;;17.02;;
24439;SDS011;12618;54.386;18.394;2022-08-19T05:13:08;22.80;;;19.02;;
24439;SDS011;12618;54.386;18.394;2022-08-19T05:15:41;21.73;;;17.55;;
24439;SDS011;12618;54.386;18.394;2022-08-19T05:18:11;21.60;;;17.60;;
24439;SDS011;12618;54.386;18.394;2022-08-19T05:21:04;21.12;;;17.55;;
24439;SDS011;12618;54.386;18.394;2022-08-19T05:23:51;24.12;;;17.80;;
24439;SDS011;12618;54.386;18.394;2022-08-19T05:26:22;24.82;;;18.32;;
24439;SDS011;12618;54.386;18.394;2022-08-19T05:28:53;25.50;;;18.55;;
24439;SDS011;12618;54.386;18.394;2022-08-19T05:31:25;29.07;;;18.60;;
24439;SDS011;12618;54.386;18.394;2022-08-19T05:33:58;22.58;;;18.00;;
24439;SDS011;12618;54.386;18.394;2022-08-19T05:36:32;21.20;;;18.37;;
24439;SDS011;12618;54.386;18.394;2022-08-19T05:39:03;19.70;;;16.80;;
24439;SDS011;12618;54.386;18.394;2022-08-19T05:41:34;20.15;;;16.82;;
24439;SDS011;12618;54.386;18.394;2022-08-19T05:44:05;22.90;;;17.52;;
24439;SDS011;12618;54.386;18.394;2022-08-19T05:46:40;25.50;;;17.65;;
24439;SDS011;12618;54.386;18.394;2022-08-19T05:49:11;28.67;;;19.73;;
24439;SDS011;12618;54.386;18.394;2022-08-19T05:51:41;24.65;;;17.32;;
24439;SDS011;12618;54.386;18.394;2022-08-19T05:54:12;21.80;;;16.40;;
24439;SDS011;12618;54.386;18.394;2022-08-19T05:56:43;22.87;;;17.17;;
24439;SDS011;12618;54.386;18.394;2022-08-19T05:59:15;20.37;;;16.35;;
24439;SDS011;12618;54.386;18.394;2022-08-19T06:01:47;26.60;;;17.20;;
24439;SDS011;12618;54.386;18.394;2022-08-19T06:04:20;20.72;;;15.63;;
24439;SDS011;12618;54.386;18.394;2022-08-19T06:06:52;17.23;;;14.80;;
24439;SDS011;12618;54.386;18.394;2022-08-19T06:09:22;18.50;;;15.30;;
24439;SDS011;12618;54.386;18.394;2022-08-19T06:11:54;19.27;;;15.50;;
24439;SDS011;12618;54.386;18.394;2022-08-19T06:14:30;20.57;;;14.78;;
24439;SDS011;12618;54.386;18.394;2022-08-19T06:17:01;25.57;;;15.00;;
24439;SDS011;12618;54.386;18.394;2022-08-19T06:19:32;17.95;;;14.15;;
24439;SDS011;12618;54.386;18.394;2022-08-19T06:22:02;16.30;;;13.28;;
24439;SDS011;12618;54.386;18.394;2022-08-19T06:24:34;17.62;;;13.40;;
24439;SDS011;12618;54.386;18.394;2022-08-19T06:27:05;20.15;;;13.00;;
24439;SDS011;12618;54.386;18.394;2022-08-19T06:29:36;15.18;;;13.10;;
24439;SDS011;12618;54.386;18.394;2022-08-19T06:32:07;14.87;;;12.73;;
24439;SDS011;12618;54.386;18.394;2022-08-19T06:34:38;14.07;;;12.65;;
24439;SDS011;12618;54.386;18.394;2022-08-19T06:37:10;14.65;;;12.85;;
24439;SDS011;12618;54.386;18.394;2022-08-19T06:39:42;18.82;;;11.88;;
24439;SDS011;12618;54.386;18.394;2022-08-19T06:42:13;17.12;;;11.03;;
24439;SDS011;12618;54.386;18.394;2022-08-19T06:44:46;12.77;;;10.60;;
24439;SDS011;12618;54.386;18.394;2022-08-19T06:49:49;12.23;;;9.18;;
24439;SDS011;12618;54.386;18.394;2022-08-19T06:52:20;13.28;;;10.15;;
24439;SDS011;12618;54.386;18.394;2022-08-19T06:54:51;12.43;;;9.50;;
24439;SDS011;12618;54.386;18.394;2022-08-19T06:57:25;12.58;;;9.55;;
24439;SDS011;12618;54.386;18.394;2022-08-19T06:59:56;11.25;;;9.15;;
24439;SDS011;12618;54.386;18.394;2022-08-19T07:02:26;17.00;;;9.13;;
24439;SDS011;12618;54.386;18.394;2022-08-19T07:04:58;13.55;;;9.25;;
24439;SDS011;12618;54.386;18.394;2022-08-19T07:07:28;11.05;;;8.30;;
24439;SDS011;12618;54.386;18.394;2022-08-19T07:10:02;9.78;;;8.20;;
24439;SDS011;12618;54.386;18.394;2022-08-19T07:12:33;9.80;;;8.10;;
24439;SDS011;12618;54.386;18.394;2022-08-19T07:15:05;8.73;;;7.62;;
24439;SDS011;12618;54.386;18.394;2022-08-19T07:17:39;9.15;;;7.67;;
24439;SDS011;12618;54.386;18.394;2022-08-19T07:20:11;10.35;;;8.33;;
24439;SDS011;12618;54.386;18.394;2022-08-19T07:22:42;8.40;;;7.42;;
24439;SDS011;12618;54.386;18.394;2022-08-19T07:25:13;12.37;;;8.10;;
24439;SDS011;12618;54.386;18.394;2022-08-19T07:27:44;12.40;;;8.28;;
24439;SDS011;12618;54.386;18.394;2022-08-19T07:30:14;13.40;;;8.28;;
24439;SDS011;12618;54.386;18.394;2022-08-19T07:32:45;9.08;;;7.80;;
24439;SDS011;12618;54.386;18.394;2022-08-19T07:35:15;8.98;;;7.30;;
24439;SDS011;12618;54.386;18.394;2022-08-19T07:37:48;8.90;;;7.22;;
24439;SDS011;12618;54.386;18.394;2022-08-19T07:40:19;6.95;;;6.30;;
24439;SDS011;12618;54.386;18.394;2022-08-19T07:42:49;7.70;;;6.80;;
24439;SDS011;12618;54.386;18.394;2022-08-19T07:45:20;8.98;;;6.97;;
24439;SDS011;12618;54.386;18.394;2022-08-19T07:47:50;9.65;;;6.28;;
24439;SDS011;12618;54.386;18.394;2022-08-19T07:50:21;10.18;;;6.62;;
24439;SDS011;12618;54.386;18.394;2022-08-19T07:52:52;7.22;;;6.40;;
24439;SDS011;12618;54.386;18.394;2022-08-19T07:55:24;10.03;;;6.30;;
24439;SDS011;12618;54.386;18.394;2022-08-19T07:57:54;13.10;;;6.95;;
24439;SDS011;12618;54.386;18.394;2022-08-19T08:00:25;13.88;;;7.10;;
24439;SDS011;12618;54.386;18.394;2022-08-19T08:02:56;12.65;;;6.12;;
24439;SDS011;12618;54.386;18.394;2022-08-19T08:05:28;7.20;;;6.03;;
24439;SDS011;12618;54.386;18.394;2022-08-19T08:08:17;11.35;;;7.17;;
24439;SDS011;12618;54.386;18.394;2022-08-19T08:10:55;9.25;;;7.00;;
24439;SDS011;12618;54.386;18.394;2022-08-19T08:13:26;7.78;;;6.40;;
24439;SDS011;12618;54.386;18.394;2022-08-19T08:15:57;12.70;;;6.75;;
24439;SDS011;12618;54.386;18.394;2022-08-19T08:18:27;11.25;;;6.47;;
24439;SDS011;12618;54.386;18.394;2022-08-19T08:20:59;11.83;;;6.92;;
24439;SDS011;12618;54.386;18.394;2022-08-19T08:23:29;9.45;;;6.87;;
24439;SDS011;12618;54.386;18.394;2022-08-19T08:26:01;10.72;;;6.92;;
24439;SDS011;12618;54.386;18.394;2022-08-19T08:28:33;9.28;;;6.85;;
24439;SDS011;12618;54.386;18.394;2022-08-19T08:31:08;10.65;;;7.08;;
24439;SDS011;12618;54.386;18.394;2022-08-19T08:33:35;13.93;;;7.10;;
24439;SDS011;12618;54.386;18.394;2022-08-19T08:36:06;8.75;;;6.75;;
24439;SDS011;12618;54.386;18.394;2022-08-19T08:38:37;13.62;;;7.75;;
24439;SDS011;12618;54.386;18.394;2022-08-19T08:43:50;8.68;;;6.70;;
24439;SDS011;12618;54.386;18.394;2022-08-19T08:51:54;9.68;;;7.53;;
24439;SDS011;12618;54.386;18.394;2022-08-19T08:54:25;14.28;;;7.33;;
24439;SDS011;12618;54.386;18.394;2022-08-19T08:56:57;9.75;;;7.08;;
24439;SDS011;12618;54.386;18.394;2022-08-19T08:59:30;7.00;;;6.28;;
24439;SDS011;12618;54.386;18.394;2022-08-19T09:02:03;19.02;;;6.83;;
24439;SDS011;12618;54.386;18.394;2022-08-19T09:04:37;10.15;;;6.30;;
24439;SDS011;12618;54.386;18.394;2022-08-19T09:15:06;9.63;;;6.10;;
24439;SDS011;12618;54.386;18.394;2022-08-19T09:17:33;15.00;;;6.10;;
24439;SDS011;12618;54.386;18.394;2022-08-19T09:22:38;9.63;;;5.37;;
24439;SDS011;12618;54.386;18.394;2022-08-19T09:25:10;6.87;;;5.55;;
24439;SDS011;12618;54.386;18.394;2022-08-19T09:27:41;8.78;;;5.30;;
24439;SDS011;12618;54.386;18.394;2022-08-19T09:30:14;11.45;;;5.40;;
24439;SDS011;12618;54.386;18.394;2022-08-19T09:32:48;9.90;;;5.35;;
24439;SDS011;12618;54.386;18.394;2022-08-19T09:35:19;10.85;;;5.60;;
24439;SDS011;12618;54.386;18.394;2022-08-19T09:37:52;9.70;;;5.15;;
24439;SDS011;12618;54.386;18.394;2022-08-19T09:40:23;11.43;;;5.40;;
24439;SDS011;12618;54.386;18.394;2022-08-19T09:42:56;8.65;;;5.08;;
24439;SDS011;12618;54.386;18.394;2022-08-19T09:45:27;15.67;;;5.53;;
24439;SDS011;12618;54.386;18.394;2022-08-19T09:47:58;8.95;;;5.20;;
24439;SDS011;12618;54.386;18.394;2022-08-19T09:50:28;7.87;;;5.28;;
24439;SDS011;12618;54.386;18.394;2022-08-19T09:53:01;11.10;;;5.10;;
24439;SDS011;12618;54.386;18.394;2022-08-19T09:55:32;11.65;;;5.42;;
24439;SDS011;12618;54.386;18.394;2022-08-19T09:58:02;9.15;;;5.00;;
24439;SDS011;12618;54.386;18.394;2022-08-19T10:00:33;7.50;;;5.35;;
24439;SDS011;12618;54.386;18.394;2022-08-19T10:03:04;15.40;;;5.67;;
24439;SDS011;12618;54.386;18.394;2022-08-19T10:05:34;8.73;;;5.20;;
24439;SDS011;12618;54.386;18.394;2022-08-19T10:08:21;10.43;;;5.40;;
24439;SDS011;12618;54.386;18.394;2022-08-19T10:10:52;8.63;;;5.50;;
24439;SDS011;12618;54.386;18.394;2022-08-19T10:13:28;9.70;;;5.50;;
24439;SDS011;12618;54.386;18.394;2022-08-19T10:16:07;7.33;;;5.00;;
24439;SDS011;12618;54.386;18.394;2022-08-19T10:18:34;10.25;;;5.50;;
24439;SDS011;12618;54.386;18.394;2022-08-19T10:23:41;6.65;;;5.25;;
24439;SDS011;12618;54.386;18.394;2022-08-19T10:26:23;22.37;;;5.95;;
24439;SDS011;12618;54.386;18.394;2022-08-19T10:28:53;10.20;;;5.70;;
24439;SDS011;12618;54.386;18.394;2022-08-19T10:31:26;6.97;;;5.92;;
24439;SDS011;12618;54.386;18.394;2022-08-19T10:33:57;9.83;;;6.22;;
24439;SDS011;12618;54.386;18.394;2022-08-19T10:36:29;9.85;;;5.95;;
24439;SDS011;12618;54.386;18.394;2022-08-19T10:39:01;13.45;;;6.90;;
24439;SDS011;12618;54.386;18.394;2022-08-19T10:41:33;9.08;;;6.12;;
24439;SDS011;12618;54.386;18.394;2022-08-19T10:44:08;9.28;;;6.35;;
24439;SDS011;12618;54.386;18.394;2022-08-19T10:46:41;8.95;;;6.05;;
24439;SDS011;12618;54.386;18.394;2022-08-19T10:49:14;9.33;;;5.83;;
24439;SDS011;12618;54.386;18.394;2022-08-19T10:51:46;7.33;;;5.45;;
24439;SDS011;12618;54.386;18.394;2022-08-19T10:54:35;7.78;;;5.37;;
24439;SDS011;12618;54.386;18.394;2022-08-19T10:57:24;6.78;;;5.45;;
24439;SDS011;12618;54.386;18.394;2022-08-19T10:59:56;9.53;;;5.55;;
24439;SDS011;12618;54.386;18.394;2022-08-19T11:02:27;13.00;;;6.22;;
24439;SDS011;12618;54.386;18.394;2022-08-19T11:04:58;10.50;;;5.47;;
24439;SDS011;12618;54.386;18.394;2022-08-19T11:07:29;9.90;;;5.80;;
24439;SDS011;12618;54.386;18.394;2022-08-19T11:09:59;10.28;;;5.30;;
24439;SDS011;12618;54.386;18.394;2022-08-19T11:12:30;17.32;;;6.15;;
24439;SDS011;12618;54.386;18.394;2022-08-19T11:15:00;12.35;;;5.25;;
24439;SDS011;12618;54.386;18.394;2022-08-19T11:17:31;7.45;;;5.22;;
24439;SDS011;12618;54.386;18.394;2022-08-19T11:20:02;6.95;;;5.12;;
24439;SDS011;12618;54.386;18.394;2022-08-19T11:22:35;6.33;;;4.67;;
24439;SDS011;12618;54.386;18.394;2022-08-19T11:25:07;7.95;;;5.03;;
24439;SDS011;12618;54.386;18.394;2022-08-19T11:27:41;12.73;;;5.72;;
24439;SDS011;12618;54.386;18.394;2022-08-19T11:30:12;11.12;;;5.53;;
24439;SDS011;12618;54.386;18.394;2022-08-19T11:32:43;11.97;;;5.67;;
24439;SDS011;12618;54.386;18.394;2022-08-19T11:35:14;13.68;;;5.30;;
24439;SDS011;12618;54.386;18.394;2022-08-19T11:37:44;14.03;;;5.60;;
24439;SDS011;12618;54.386;18.394;2022-08-19T11:40:15;14.93;;;5.70;;
24439;SDS011;12618;54.386;18.394;2022-08-19T11:42:45;10.27;;;5.60;;
24439;SDS011;12618;54.386;18.394;2022-08-19T11:45:26;7.65;;;5.30;;
24439;SDS011;12618;54.386;18.394;2022-08-19T11:47:58;12.88;;;5.55;;
24439;SDS011;12618;54.386;18.394;2022-08-19T11:53:25;12.80;;;5.45;;
24439;SDS011;12618;54.386;18.394;2022-08-19T11:55:56;14.28;;;5.50;;
24439;SDS011;12618;54.386;18.394;2022-08-19T11:58:26;10.35;;;5.87;;
24439;SDS011;12618;54.386;18.394;2022-08-19T12:00:57;12.37;;;5.85;;
24439;SDS011;12618;54.386;18.394;2022-08-19T12:03:28;10.20;;;6.30;;
24439;SDS011;12618;54.386;18.394;2022-08-19T12:06:02;7.40;;;5.78;;
24439;SDS011;12618;54.386;18.394;2022-08-19T12:08:31;11.85;;;5.90;;
24439;SDS011;12618;54.386;18.394;2022-08-19T12:11:02;8.33;;;5.70;;
24439;SDS011;12618;54.386;18.394;2022-08-19T12:13:32;11.12;;;6.00;;
24439;SDS011;12618;54.386;18.394;2022-08-19T12:16:10;10.68;;;6.10;;
24439;SDS011;12618;54.386;18.394;2022-08-19T12:18:42;12.78;;;5.97;;
24439;SDS011;12618;54.386;18.394;2022-08-19T12:21:20;12.33;;;5.90;;
24439;SDS011;12618;54.386;18.394;2022-08-19T12:23:51;10.05;;;6.37;;
24439;SDS011;12618;54.386;18.394;2022-08-19T12:26:23;8.23;;;5.22;;
24439;SDS011;12618;54.386;18.394;2022-08-19T12:28:53;11.68;;;6.20;;
24439;SDS011;12618;54.386;18.394;2022-08-19T12:31:25;13.80;;;6.20;;
24439;SDS011;12618;54.386;18.394;2022-08-19T12:33:55;11.70;;;5.70;;
24439;SDS011;12618;54.386;18.394;2022-08-19T12:36:58;10.25;;;6.10;;
24439;SDS011;12618;54.386;18.394;2022-08-19T12:39:38;11.57;;;6.55;;
24439;SDS011;12618;54.386;18.394;2022-08-19T12:42:12;10.65;;;6.03;;
24439;SDS011;12618;54.386;18.394;2022-08-19T12:44:44;7.72;;;6.15;;
24439;SDS011;12618;54.386;18.394;2022-08-19T12:47:15;13.40;;;6.37;;
24439;SDS011;12618;54.386;18.394;2022-08-19T12:49:47;16.32;;;6.35;;
24439;SDS011;12618;54.386;18.394;2022-08-19T12:52:19;12.13;;;6.53;;
24439;SDS011;12618;54.386;18.394;2022-08-19T12:54:51;12.30;;;5.75;;
24439;SDS011;12618;54.386;18.394;2022-08-19T12:57:25;12.28;;;5.90;;
24439;SDS011;12618;54.386;18.394;2022-08-19T12:59:58;10.23;;;6.45;;
24439;SDS011;12618;54.386;18.394;2022-08-19T13:02:30;18.00;;;7.17;;
24439;SDS011;12618;54.386;18.394;2022-08-19T13:05:02;9.45;;;6.60;;
24439;SDS011;12618;54.386;18.394;2022-08-19T13:07:34;9.20;;;6.72;;
24439;SDS011;12618;54.386;18.394;2022-08-19T13:10:06;10.82;;;6.75;;
24439;SDS011;12618;54.386;18.394;2022-08-19T13:15:11;13.22;;;6.97;;
24439;SDS011;12618;54.386;18.394;2022-08-19T13:17:45;8.63;;;6.30;;
24439;SDS011;12618;54.386;18.394;2022-08-19T13:22:50;11.97;;;7.50;;
24439;SDS011;12618;54.386;18.394;2022-08-19T13:25:21;11.00;;;7.30;;
24439;SDS011;12618;54.386;18.394;2022-08-19T13:27:53;11.63;;;6.90;;
24439;SDS011;12618;54.386;18.394;2022-08-19T13:30:25;7.87;;;6.10;;
24439;SDS011;12618;54.386;18.394;2022-08-19T13:33:14;10.72;;;6.53;;
24439;SDS011;12618;54.386;18.394;2022-08-19T13:35:47;11.00;;;6.80;;
24439;SDS011;12618;54.386;18.394;2022-08-19T13:38:25;12.10;;;6.60;;
24439;SDS011;12618;54.386;18.394;2022-08-19T13:40:55;9.33;;;6.40;;
24439;SDS011;12618;54.386;18.394;2022-08-19T13:43:28;13.53;;;7.37;;
24439;SDS011;12618;54.386;18.394;2022-08-19T13:45:59;9.90;;;6.70;;
24439;SDS011;12618;54.386;18.394;2022-08-19T13:48:30;10.18;;;7.20;;
24439;SDS011;12618;54.386;18.394;2022-08-19T13:51:01;9.15;;;6.28;;
24439;SDS011;12618;54.386;18.394;2022-08-19T13:53:35;11.53;;;7.28;;
24439;SDS011;12618;54.386;18.394;2022-08-19T13:56:09;14.70;;;7.30;;
24439;SDS011;12618;54.386;18.394;2022-08-19T13:58:42;8.78;;;6.70;;
24439;SDS011;12618;54.386;18.394;2022-08-19T14:01:18;9.90;;;6.85;;
24439;SDS011;12618;54.386;18.394;2022-08-19T14:03:50;13.43;;;6.70;;
24439;SDS011;12618;54.386;18.394;2022-08-19T14:06:22;16.32;;;6.90;;
24439;SDS011;12618;54.386;18.394;2022-08-19T14:08:53;10.72;;;7.12;;
24439;SDS011;12618;54.386;18.394;2022-08-19T14:11:24;14.55;;;7.12;;
24439;SDS011;12618;54.386;18.394;2022-08-19T14:13:54;9.80;;;6.58;;
24439;SDS011;12618;54.386;18.394;2022-08-19T14:16:25;12.98;;;7.15;;
24439;SDS011;12618;54.386;18.394;2022-08-19T14:18:57;15.43;;;7.15;;
24439;SDS011;12618;54.386;18.394;2022-08-19T14:21:28;14.85;;;7.35;;
24439;SDS011;12618;54.386;18.394;2022-08-19T14:23:59;11.03;;;7.37;;
24439;SDS011;12618;54.386;18.394;2022-08-19T14:26:31;10.28;;;7.42;;
24439;SDS011;12618;54.386;18.394;2022-08-19T14:29:02;11.33;;;7.42;;
24439;SDS011;12618;54.386;18.394;2022-08-19T14:31:34;14.85;;;7.55;;
24439;SDS011;12618;54.386;18.394;2022-08-19T14:34:05;13.75;;;7.53;;
24439;SDS011;12618;54.386;18.394;2022-08-19T14:36:36;10.55;;;7.47;;
24439;SDS011;12618;54.386;18.394;2022-08-19T14:39:08;16.67;;;8.23;;
24439;SDS011;12618;54.386;18.394;2022-08-19T14:41:40;15.60;;;7.80;;
24439;SDS011;12618;54.386;18.394;2022-08-19T14:44:12;15.78;;;7.72;;
24439;SDS011;12618;54.386;18.394;2022-08-19T14:46:42;13.05;;;7.97;;
24439;SDS011;12618;54.386;18.394;2022-08-19T14:49:15;16.35;;;8.00;;
24439;SDS011;12618;54.386;18.394;2022-08-19T14:51:46;13.55;;;7.97;;
24439;SDS011;12618;54.386;18.394;2022-08-19T14:54:17;10.20;;;7.25;;
24439;SDS011;12618;54.386;18.394;2022-08-19T14:56:48;12.98;;;7.75;;
24439;SDS011;12618;54.386;18.394;2022-08-19T14:59:20;11.83;;;7.30;;
24439;SDS011;12618;54.386;18.394;2022-08-19T15:01:51;12.93;;;7.67;;
24439;SDS011;12618;54.386;18.394;2022-08-19T15:04:22;13.80;;;7.78;;
24439;SDS011;12618;54.386;18.394;2022-08-19T15:06:52;17.50;;;7.58;;
24439;SDS011;12618;54.386;18.394;2022-08-19T15:09:23;15.20;;;7.60;;
24439;SDS011;12618;54.386;18.394;2022-08-19T15:11:55;11.30;;;7.30;;
24439;SDS011;12618;54.386;18.394;2022-08-19T15:14:28;10.93;;;7.50;;
24439;SDS011;12618;54.386;18.394;2022-08-19T15:17:02;10.20;;;7.53;;